Time;durP1;ratioP1;P1;durP2;ratioP2;P2;SDS_P1;SDS_P2;PMS_P1;PMS_P2;Temp;Humidity;BMP_temperature;BMP_pressure;BME280_temperature;BME280_humidity;BME280_pressure;Samples;Min_cycle;Max_cycle;Signal;HPM_P1;HPM_P2
2021/03/29 00:00:29;;;;;;;0.10;0.10;;;;;;;10.34;100.00;100030.06;5027398;28;20054;-82
2021/03/29 00:03:33;;;;;;;0.10;0.10;;;;;;;10.36;100.00;100024.00;5028295;28;20053;-80
2021/03/29 00:06:37;;;;;;;0.20;0.20;;;;;;;10.36;100.00;100022.00;5028919;28;20477;-81
2021/03/29 00:09:42;;;;;;;0.10;0.10;;;;;;;10.40;100.00;100027.41;5031242;28;20069;-82
2021/03/29 00:12:47;;;;;;;0.10;0.10;;;;;;;10.42;100.00;100020.13;5036709;28;20068;-80
2021/03/29 00:15:53;;;;;;;1.02;0.05;;;;;;;10.42;100.00;100017.34;5027877;28;20081;-80
2021/03/29 00:18:57;;;;;;;0.10;0.10;;;;;;;10.42;100.00;99999.84;5026946;28;20087;-80
2021/03/29 00:22:01;;;;;;;6.65;0.38;;;;;;;10.44;100.00;100012.06;5027441;28;20129;-82
2021/03/29 00:25:07;;;;;;;0.30;0.10;;;;;;;10.43;100.00;100027.25;5027892;28;20095;-81
2021/03/29 00:28:11;;;;;;;0.20;0.10;;;;;;;10.42;100.00;100022.91;5028289;28;20060;-80
2021/03/29 00:31:15;;;;;;;0.10;0.10;;;;;;;10.39;100.00;100025.88;5028719;28;20084;-80
2021/03/29 00:34:19;;;;;;;0.10;0.10;;;;;;;10.38;100.00;100033.44;5028800;28;20056;-80
2021/03/29 00:37:23;;;;;;;0.10;0.10;;;;;;;10.38;100.00;100039.00;5027570;28;20069;-81
2021/03/29 00:40:28;;;;;;;0.10;0.10;;;;;;;10.37;100.00;100034.69;5026787;28;20504;-81
2021/03/29 00:43:33;;;;;;;0.10;0.10;;;;;;;10.34;100.00;100046.75;5030069;28;20064;-80
2021/03/29 00:46:40;;;;;;;0.20;0.20;;;;;;;10.32;100.00;100052.03;5031320;28;20061;-82
2021/03/29 00:49:43;;;;;;;0.10;0.10;;;;;;;10.28;100.00;100053.44;5031242;28;20057;-82
2021/03/29 00:52:48;;;;;;;0.10;0.10;;;;;;;10.26;100.00;100061.47;5024794;28;20057;-81
2021/03/29 00:55:53;;;;;;;0.20;0.10;;;;;;;10.26;100.00;100051.13;5024368;28;20056;-81
2021/03/29 00:58:58;;;;;;;2.60;0.20;;;;;;;10.24;100.00;100050.81;5031641;28;20525;-82
2021/03/29 01:02:04;;;;;;;0.10;0.10;;;;;;;10.24;100.00;100063.97;5031282;28;20413;-82
2021/03/29 01:05:20;;;;;;;5.50;0.40;;;;;;;10.26;100.00;100061.47;5026674;28;20409;-81
2021/03/29 01:08:25;;;;;;;0.15;0.15;;;;;;;10.26;100.00;100051.13;5030626;28;20064;-83
2021/03/29 01:11:31;;;;;;;0.10;0.10;;;;;;;10.26;100.00;100050.34;5030550;28;20064;-82
2021/03/29 01:14:38;;;;;;;0.10;0.00;;;;;;;10.26;100.00;100061.47;5030821;28;20513;-83
2021/03/29 01:17:45;;;;;;;0.20;0.20;;;;;;;10.27;100.00;100069.34;5031907;28;20069;-81
2021/03/29 01:21:01;;;;;;;0.10;0.10;;;;;;;10.27;100.00;100060.22;5024421;28;20430;-82
2021/03/29 01:24:18;;;;;;;0.20;0.20;;;;;;;10.26;100.00;100065.03;5025592;28;20068;-81
2021/03/29 01:27:30;;;;;;;0.20;0.20;;;;;;;10.28;100.00;100059.00;5030304;28;20053;-81
2021/03/29 01:30:36;;;;;;;0.10;0.10;;;;;;;10.30;100.00;100054.50;5031069;28;20152;-80
2021/03/29 01:33:39;;;;;;;0.10;0.10;;;;;;;10.29;100.00;100049.41;5030883;28;20061;-81
2021/03/29 01:36:44;;;;;;;0.10;0.10;;;;;;;10.31;100.00;100053.25;5030019;28;20501;-82
2021/03/29 01:39:50;;;;;;;0.20;0.20;;;;;;;10.32;100.00;100060.38;5010882;28;20056;-82
2021/03/29 01:42:55;;;;;;;0.10;0.10;;;;;;;10.35;100.00;100061.47;5009679;28;20072;-80
2021/03/29 01:45:59;;;;;;;0.10;0.10;;;;;;;10.37;100.00;100062.50;5010607;28;20065;-81
2021/03/29 01:49:03;;;;;;;0.10;0.10;;;;;;;10.42;100.00;100059.09;5010674;28;20057;-81
2021/03/29 01:52:08;;;;;;;0.10;0.10;;;;;;;10.43;100.00;100060.66;5010450;28;20057;-81
2021/03/29 01:55:12;;;;;;;0.10;0.10;;;;;;;10.44;100.00;100067.75;5009970;28;20060;-80
2021/03/29 01:58:17;;;;;;;0.10;0.10;;;;;;;10.43;100.00;100069.00;5010207;28;20069;-81
2021/03/29 02:01:21;;;;;;;0.10;0.10;;;;;;;10.45;100.00;100063.75;5008522;28;20065;-81
2021/03/29 02:04:28;;;;;;;0.10;0.10;;;;;;;10.43;100.00;100055.09;5011366;28;20069;-82
2021/03/29 02:07:31;;;;;;;0.10;0.10;;;;;;;10.44;100.00;100051.06;5012278;28;20104;-82
2021/03/29 02:10:37;;;;;;;0.20;0.20;;;;;;;10.49;100.00;100046.84;5012362;28;20053;-81
2021/03/29 02:13:43;;;;;;;0.10;0.10;;;;;;;10.49;100.00;100063.56;5011262;28;20525;-79
2021/03/29 02:16:47;;;;;;;0.10;0.10;;;;;;;10.48;100.00;100062.78;5011862;28;20533;-79
2021/03/29 02:19:52;;;;;;;0.30;0.10;;;;;;;10.50;100.00;100053.97;5012001;28;20061;-79
2021/03/29 02:22:56;;;;;;;0.10;0.10;;;;;;;10.47;100.00;100071.63;5015351;28;20061;-78
2021/03/29 02:26:02;;;;;;;0.10;0.10;;;;;;;10.44;100.00;100066.97;5013032;28;20049;-80
2021/03/29 02:29:06;;;;;;;0.10;0.10;;;;;;;10.49;100.00;100063.56;5010873;28;20061;-80
2021/03/29 02:32:10;;;;;;;0.10;0.03;;;;;;;10.49;100.00;100069.91;5011315;28;20061;-78
2021/03/29 02:35:15;;;;;;;0.10;0.10;;;;;;;10.52;100.00;100068.97;5011441;28;20057;-79
2021/03/29 02:38:20;;;;;;;0.30;0.20;;;;;;;10.58;100.00;100072.66;5023504;28;20068;-80
2021/03/29 02:41:26;;;;;;;0.10;0.10;;;;;;;10.54;100.00;100083.22;5030771;28;20409;-79
2021/03/29 02:44:31;;;;;;;0.10;0.10;;;;;;;10.50;100.00;100081.81;5031067;28;20052;-78
2021/03/29 02:47:39;;;;;;;0.10;0.10;;;;;;;10.50;100.00;100077.00;5031487;28;20524;-79
2021/03/29 02:50:46;;;;;;;0.10;0.10;;;;;;;10.52;100.00;100085.69;5029586;28;20060;-78
2021/03/29 02:53:54;;;;;;;0.10;0.10;;;;;;;10.52;100.00;100088.47;5030766;28;20125;-79
2021/03/29 02:56:58;;;;;;;0.30;0.30;;;;;;;10.50;100.00;100093.72;5030776;28;20052;-78
2021/03/29 03:00:17;;;;;;;0.90;0.30;;;;;;;10.52;100.00;100098.84;5030752;28;20654;-79
2021/03/29 03:03:21;;;;;;;0.10;0.10;;;;;;;10.47;100.00;100089.09;5029892;28;20080;-78
2021/03/29 03:06:28;;;;;;;0.10;0.10;;;;;;;10.45;100.00;100097.16;5029750;28;20068;-79
2021/03/29 03:09:33;;;;;;;0.10;0.10;;;;;;;10.47;100.00;100083.53;5030821;28;20064;-79
2021/03/29 03:12:41;;;;;;;0.10;0.10;;;;;;;10.47;100.00;100077.19;5030695;28;20409;-79
2021/03/29 03:15:46;;;;;;;0.10;0.10;;;;;;;10.48;100.00;100073.19;5030231;28;20109;-79
2021/03/29 03:18:49;;;;;;;0.20;0.20;;;;;;;10.52;100.00;100063.41;5030485;28;20536;-79
2021/03/29 03:21:53;;;;;;;0.20;0.20;;;;;;;10.54;100.00;100074.06;5029721;28;20057;-82
2021/03/29 03:24:56;;;;;;;0.10;0.10;;;;;;;10.55;100.00;100068.03;5029872;28;20080;-81
2021/03/29 03:28:02;;;;;;;0.10;0.10;;;;;;;10.58;100.00;100064.31;5029531;28;20076;-81
2021/03/29 03:31:05;;;;;;;0.10;0.00;;;;;;;10.62;100.00;100073.25;5030156;28;20064;-81
2021/03/29 03:34:09;;;;;;;0.10;0.10;;;;;;;10.64;100.00;100064.44;5030300;28;20060;-81
2021/03/29 03:37:18;;;;;;;0.10;0.10;;;;;;;10.64;100.00;100070.78;5028224;28;20440;-79
2021/03/29 03:40:22;;;;;;;0.10;0.10;;;;;;;10.64;100.00;100075.56;5029481;28;20064;-79
2021/03/29 03:43:30;;;;;;;0.10;0.10;;;;;;;10.66;100.00;100079.44;5030232;28;20056;-79
2021/03/29 03:46:38;;;;;;;0.10;0.10;;;;;;;10.64;100.00;100076.34;5030230;28;20056;-79
2021/03/29 03:49:43;;;;;;;0.10;0.10;;;;;;;10.61;100.00;100077.28;5030251;28;20076;-79
2021/03/29 03:52:48;;;;;;;0.10;0.10;;;;;;;10.63;100.00;100077.56;5022586;28;20069;-80
2021/03/29 03:55:54;;;;;;;0.10;0.10;;;;;;;10.60;100.00;100081.31;5030215;28;20060;-79
2021/03/29 03:58:57;;;;;;;0.13;0.13;;;;;;;10.60;100.00;100072.97;5030006;28;20080;-80
2021/03/29 04:02:06;;;;;;;0.10;0.10;;;;;;;10.61;100.00;100077.28;5029913;28;20060;-80
2021/03/29 04:05:12;;;;;;;0.10;0.10;;;;;;;10.60;100.00;100074.97;5024841;28;20093;-79
2021/03/29 04:08:15;;;;;;;0.10;0.10;;;;;;;10.58;100.00;100089.38;5029954;28;20409;-80
2021/03/29 04:11:23;;;;;;;0.10;0.10;;;;;;;10.57;100.00;100082.25;5026032;28;20061;-80
2021/03/29 04:14:26;;;;;;;0.10;0.10;;;;;;;10.56;100.00;100086.28;5029849;28;20060;-80
2021/03/29 04:17:30;;;;;;;0.10;0.10;;;;;;;10.55;100.00;100090.31;5030719;28;20056;-79
2021/03/29 04:20:34;;;;;;;0.10;0.10;;;;;;;10.55;100.00;100084.72;5034255;28;20057;-79
2021/03/29 04:23:37;;;;;;;0.10;0.00;;;;;;;10.56;100.00;100097.44;5033051;28;20068;-81
2021/03/29 04:26:42;;;;;;;0.10;0.10;;;;;;;10.55;100.00;100107.00;5033992;28;20060;-81
2021/03/29 04:29:45;;;;;;;0.10;0.10;;;;;;;10.55;100.00;100118.16;5026050;28;20064;-80
2021/03/29 04:32:49;;;;;;;0.10;0.10;;;;;;;10.59;100.00;100113.19;5026102;28;20068;-81
2021/03/29 04:35:52;;;;;;;0.10;0.10;;;;;;;10.59;100.00;100115.19;5042908;28;20061;-82
2021/03/29 04:38:55;;;;;;;0.10;0.10;;;;;;;10.62;100.00;100100.34;5036187;28;20065;-81
2021/03/29 04:41:59;;;;;;;0.10;0.10;;;;;;;10.68;100.00;100125.56;5026961;28;20064;-82
2021/03/29 04:45:05;;;;;;;0.10;0.10;;;;;;;10.66;100.00;100132.34;5027276;28;20061;-81
2021/03/29 04:48:09;;;;;;;0.20;0.10;;;;;;;10.65;100.00;100144.72;5033083;28;20061;-79
2021/03/29 04:51:12;;;;;;;0.10;0.10;;;;;;;10.66;100.00;100142.72;5033109;28;20117;-79
2021/03/29 04:54:15;;;;;;;0.10;0.10;;;;;;;10.71;100.00;100141.31;5033270;28;20056;-80
2021/03/29 04:57:19;;;;;;;0.10;0.10;;;;;;;10.71;100.00;100135.75;5029632;28;20121;-79
2021/03/29 05:00:23;;;;;;;0.10;0.10;;;;;;;10.68;100.00;100137.44;5033995;28;20076;-79
2021/03/29 05:03:26;;;;;;;0.10;0.10;;;;;;;10.65;100.00;100130.78;5034499;28;20544;-79
2021/03/29 05:06:30;;;;;;;0.10;0.10;;;;;;;10.71;100.00;100142.09;5033610;28;20056;-79
2021/03/29 05:09:34;;;;;;;0.10;0.10;;;;;;;10.68;100.00;100141.00;5014131;28;20057;-79
2021/03/29 05:12:37;;;;;;;1.17;0.20;;;;;;;10.70;100.00;100123.81;5013355;28;20093;-80
2021/03/29 05:15:40;;;;;;;0.10;0.10;;;;;;;10.71;100.00;100130.94;5013214;28;20064;-80
2021/03/29 05:18:44;;;;;;;0.10;0.10;;;;;;;10.75;100.00;100136.34;5024551;28;20060;-79
2021/03/29 05:21:48;;;;;;;1.45;0.20;;;;;;;10.73;100.00;100136.03;5025348;28;20065;-79
2021/03/29 05:24:51;;;;;;;0.10;0.00;;;;;;;10.70;100.00;100114.72;5025882;28;20056;-79
2021/03/29 05:27:55;;;;;;;0.20;0.10;;;;;;;10.70;100.00;100134.22;5026100;28;20529;-80
2021/03/29 05:30:58;;;;;;;0.90;0.20;;;;;;;10.68;100.00;100148.59;5025911;28;20065;-81
2021/03/29 05:34:01;;;;;;;1.45;0.38;;;;;;;10.66;100.00;100146.28;5027161;28;20056;-81
2021/03/29 05:37:05;;;;;;;4.95;0.75;;;;;;;10.66;100.00;100151.84;5025862;28;20540;-82
2021/03/29 05:40:10;;;;;;;0.57;0.17;;;;;;;10.68;100.00;100158.97;5027422;28;20052;-80
2021/03/29 05:43:14;;;;;;;7.95;0.75;;;;;;;10.71;100.00;100169.16;5028519;28;20053;-79
2021/03/29 05:46:18;;;;;;;2.28;0.20;;;;;;;10.74;100.00;100187.75;5028092;28;20060;-80
2021/03/29 05:49:21;;;;;;;0.93;0.30;;;;;;;10.76;100.00;100194.38;5032106;28;20064;-80
2021/03/29 05:52:27;;;;;;;0.17;0.17;;;;;;;10.78;100.00;100193.91;5031024;28;20080;-80
2021/03/29 05:55:35;;;;;;;2.35;1.17;;;;;;;10.78;100.00;100202.28;5031944;28;20061;-79
2021/03/29 06:02:00;;;;;;;2.25;0.25;;;;;;;10.79;100.00;100212.16;5032448;28;20080;-80
2021/03/29 06:05:04;;;;;;;2.05;0.80;;;;;;;10.79;100.00;100231.66;5031865;28;20531;-79
2021/03/29 06:08:07;;;;;;;0.10;0.10;;;;;;;10.80;100.00;100217.28;5025174;28;20525;-79
2021/03/29 06:11:38;;;;;;;0.10;0.10;;;;;;;10.84;100.00;100217.09;5027404;28;20061;-79
2021/03/29 06:14:44;;;;;;;3.22;0.30;;;;;;;10.86;100.00;100206.25;5019324;28;20061;-79
2021/03/29 06:17:48;;;;;;;0.85;0.85;;;;;;;10.89;100.00;100222.06;5012665;28;20081;-79
2021/03/29 06:21:01;;;;;;;0.10;0.10;;;;;;;10.89;100.00;100214.47;5024003;28;20057;-79
2021/03/29 06:24:05;;;;;;;2.20;0.77;;;;;;;10.92;100.00;100213.53;5031568;28;20056;-80
2021/03/29 06:27:08;;;;;;;0.63;0.30;;;;;;;10.96;100.00;100219.69;5027074;28;20410;-80
2021/03/29 06:30:13;;;;;;;7.13;0.52;;;;;;;10.99;100.00;100234.72;5031825;28;20540;-79
2021/03/29 06:33:17;;;;;;;0.60;0.20;;;;;;;11.04;100.00;100237.66;5031952;28;20060;-79
2021/03/29 06:36:34;;;;;;;0.47;0.10;;;;;;;11.04;100.00;100237.66;5029727;28;20417;-80
2021/03/29 06:39:40;;;;;;;0.20;0.20;;;;;;;11.05;100.00;100238.41;5011580;28;20065;-80
2021/03/29 06:42:44;;;;;;;0.10;0.10;;;;;;;11.09;100.00;100250.16;5010625;28;20057;-80
2021/03/29 06:45:49;;;;;;;0.63;0.10;;;;;;;11.13;100.00;100239.63;5011870;28;20065;-79
2021/03/29 06:48:54;;;;;;;0.50;0.40;;;;;;;11.16;100.00;100238.69;5013228;28;20061;-80
2021/03/29 06:51:57;;;;;;;1.20;0.30;;;;;;;11.18;100.00;100252.91;5012098;28;20069;-80
2021/03/29 06:55:17;;;;;;;0.30;0.13;;;;;;;11.21;100.00;100261.13;5011670;28;20057;-80
2021/03/29 06:58:25;;;;;;;0.30;0.10;;;;;;;11.25;100.00;100252.59;5010331;28;20057;-80
2021/03/29 07:01:30;;;;;;;0.10;0.10;;;;;;;11.30;100.00;100266.66;5012365;28;20053;-81
2021/03/29 07:04:36;;;;;;;0.10;0.10;;;;;;;11.34;100.00;100260.91;5011646;28;20057;-80
2021/03/29 07:07:39;;;;;;;0.10;0.10;;;;;;;11.39;100.00;100268.66;5011088;28;20057;-80
2021/03/29 07:10:43;;;;;;;2.75;0.20;;;;;;;11.47;100.00;100275.44;5011204;28;20092;-80
2021/03/29 07:13:47;;;;;;;0.10;0.10;;;;;;;11.55;100.00;100276.63;5009687;28;20069;-80
2021/03/29 07:16:53;;;;;;;0.10;0.10;;;;;;;11.64;100.00;100265.44;5011171;28;20418;-81
2021/03/29 07:19:59;;;;;;;1.15;0.20;;;;;;;11.74;100.00;100272.53;5008600;28;20069;-80
2021/03/29 07:23:02;;;;;;;0.10;0.10;;;;;;;11.77;100.00;100288.34;5005231;28;20068;-81
2021/03/29 07:26:22;;;;;;;0.17;0.10;;;;;;;11.87;100.00;100278.66;5006429;28;20065;-81
2021/03/29 07:29:29;;;;;;;0.10;0.10;;;;;;;11.90;100.00;100291.66;5008026;28;20513;-81
2021/03/29 07:32:36;;;;;;;0.30;0.30;;;;;;;11.93;100.00;100310.25;5011558;28;20057;-81
2021/03/29 07:35:48;;;;;;;0.10;0.00;;;;;;;11.95;100.00;100309.78;5012097;28;20052;-81
2021/03/29 07:38:55;;;;;;;0.10;0.10;;;;;;;11.98;100.00;100304.03;5013492;28;20060;-81
2021/03/29 07:42:24;;;;;;;0.15;0.13;;;;;;;12.03;100.00;100320.13;5015438;28;20548;-81
2021/03/29 07:45:33;;;;;;;0.30;0.20;;;;;;;12.07;100.00;100319.94;5028826;28;20556;-80
2021/03/29 07:48:41;;;;;;;2.75;0.28;;;;;;;12.05;100.00;100326.00;5031041;28;20060;-80
2021/03/29 07:51:45;;;;;;;0.10;0.10;;;;;;;12.10;100.00;100327.38;5014625;28;20532;-80
2021/03/29 07:54:49;;;;;;;0.38;0.10;;;;;;;12.15;100.00;100321.91;5014839;28;20080;-79
2021/03/29 07:57:53;;;;;;;1.98;0.63;;;;;;;12.22;100.00;100322.78;5015692;28;20052;-79
2021/03/29 08:01:07;;;;;;;1.00;0.10;;;;;;;12.24;100.00;100328.66;5011472;28;20061;-79
2021/03/29 08:04:10;;;;;;;2.08;0.55;;;;;;;12.31;100.00;100331.09;5010782;28;20054;-79
2021/03/29 08:07:37;;;;;;;3.83;0.43;;;;;;;12.36;100.00;100327.66;5018104;28;20524;-79
2021/03/29 08:11:31;;;;;;;5.30;0.63;;;;;;;12.44;100.00;100340.03;5030067;28;20064;-80
2021/03/29 08:14:37;;;;;;;3.05;0.40;;;;;;;12.51;100.00;100332.06;5006541;28;20065;-78
2021/03/29 08:17:48;;;;;;;4.40;0.85;;;;;;;12.60;100.00;100339.59;5030843;28;20084;-79
2021/03/29 08:20:54;;;;;;;0.57;0.20;;;;;;;12.66;100.00;100334.88;5030759;28;20072;-80
2021/03/29 08:24:00;;;;;;;2.05;0.43;;;;;;;12.70;100.00;100336.25;5030283;28;20064;-80
2021/03/29 08:27:04;;;;;;;1.17;0.35;;;;;;;12.78;100.00;100336.63;5029909;28;20520;-79
2021/03/29 08:30:14;;;;;;;1.23;0.40;;;;;;;12.99;100.00;100340.34;5030508;28;20083;-80
2021/03/29 08:33:18;;;;;;;3.35;0.30;;;;;;;13.04;100.00;100351.63;5030356;28;20084;-79
2021/03/29 08:36:22;;;;;;;5.43;0.90;;;;;;;13.04;100.00;100337.63;5030607;28;20064;-80
2021/03/29 08:39:30;;;;;;;1.48;0.55;;;;;;;13.01;100.00;100352.59;5010518;28;20069;-80
2021/03/29 08:42:34;;;;;;;2.25;0.43;;;;;;;13.04;100.00;100360.00;5009780;28;20061;-82
2021/03/29 08:45:38;;;;;;;3.53;0.73;;;;;;;13.07;100.00;100356.28;5021933;28;20069;-80
2021/03/29 08:48:45;;;;;;;0.73;0.20;;;;;;;13.16;100.00;100364.59;5010280;28;20053;-82
2021/03/29 08:51:50;;;;;;;1.25;0.25;;;;;;;13.25;100.00;100353.34;5010488;28;20425;-81
2021/03/29 08:54:57;;;;;;;3.15;0.80;;;;;;;13.45;100.00;100372.22;5011585;28;20414;-81
2021/03/29 08:58:01;;;;;;;1.90;0.10;;;;;;;13.53;100.00;100379.75;5011642;28;20049;-82
2021/03/29 09:01:05;;;;;;;3.83;0.60;;;;;;;13.54;100.00;100384.09;5015239;28;20057;-81
2021/03/29 09:04:10;;;;;;;0.45;0.32;;;;;;;13.52;100.00;100395.00;5013086;28;20061;-80
2021/03/29 09:07:14;;;;;;;0.20;0.10;;;;;;;13.51;100.00;100404.63;5013971;28;20065;-81
2021/03/29 09:10:19;;;;;;;0.52;0.05;;;;;;;13.69;100.00;100410.03;5013103;28;20061;-80
2021/03/29 09:13:23;;;;;;;0.55;0.10;;;;;;;13.79;100.00;100412.75;5014293;28;20056;-81
2021/03/29 09:16:26;;;;;;;0.75;0.30;;;;;;;13.74;100.00;100419.00;5014049;28;20072;-81
2021/03/29 09:19:34;;;;;;;0.20;0.10;;;;;;;13.87;100.00;100425.09;5013689;28;20085;-81
2021/03/29 09:22:37;;;;;;;0.52;0.17;;;;;;;13.95;100.00;100427.00;5012342;28;20524;-81
2021/03/29 09:25:45;;;;;;;0.10;0.03;;;;;;;14.02;100.00;100423.03;5013917;28;20121;-78
2021/03/29 09:28:50;;;;;;;0.57;0.20;;;;;;;14.00;100.00;100450.75;5013347;28;20606;-79
2021/03/29 09:31:53;;;;;;;0.22;0.10;;;;;;;14.08;100.00;100443.50;5013668;28;20061;-79
2021/03/29 09:34:57;;;;;;;0.75;0.10;;;;;;;14.29;100.00;100450.75;5013492;28;20057;-80
2021/03/29 09:38:00;;;;;;;0.22;0.10;;;;;;;14.49;100.00;100456.38;5022780;28;20056;-79
2021/03/29 09:41:36;;;;;;;0.10;0.00;;;;;;;14.51;100.00;100459.47;5032249;28;20529;-79
2021/03/29 09:44:40;;;;;;;1.27;0.10;;;;;;;14.17;100.00;100449.00;5013918;28;20065;-79
2021/03/29 09:48:05;;;;;;;0.10;0.10;;;;;;;14.37;100.00;100477.09;5033203;28;20053;-79
2021/03/29 09:51:23;;;;;;;0.10;0.10;;;;;;;14.72;100.00;100465.88;5032524;28;20064;-78
2021/03/29 09:54:30;;;;;;;0.30;0.05;;;;;;;15.07;100.00;100475.75;5032053;28;20498;-80
2021/03/29 09:57:42;;;;;;;0.45;0.00;;;;;;;15.05;100.00;100486.72;5032938;28;20057;-80
2021/03/29 10:00:45;;;;;;;0.10;0.10;;;;;;;15.04;100.00;100476.00;5033121;28;20072;-80
2021/03/29 10:03:55;;;;;;;1.30;0.32;;;;;;;15.17;100.00;100482.00;5031118;28;20064;-81
2021/03/29 10:07:02;;;;;;;0.52;0.10;;;;;;;15.35;100.00;100500.59;5031898;28;20532;-81
2021/03/29 10:10:08;;;;;;;0.10;0.00;;;;;;;15.52;100.00;100507.19;5032408;28;20057;-80
2021/03/29 10:13:14;;;;;;;0.10;0.00;;;;;;;15.71;100.00;100511.22;5032190;28;20528;-81
2021/03/29 10:16:25;;;;;;;0.95;0.30;;;;;;;15.84;100.00;100515.19;5031710;28;20537;-81
2021/03/29 10:19:31;;;;;;;0.40;0.10;;;;;;;16.08;100.00;100523.34;5031828;28;20513;-81
2021/03/29 10:22:36;;;;;;;0.20;0.20;;;;;;;16.10;100.00;100523.63;5032443;28;20520;-81
2021/03/29 10:25:39;;;;;;;0.55;0.17;;;;;;;16.06;100.00;100516.66;5032117;28;20064;-81
2021/03/29 10:29:04;;;;;;;0.25;0.20;;;;;;;16.20;100.00;100510.91;5031625;28;20524;-79
2021/03/29 10:32:09;;;;;;;6.38;0.35;;;;;;;16.33;100.00;100516.91;5032366;28;20084;-80
2021/03/29 10:35:12;;;;;;;0.77;0.20;;;;;;;16.31;100.00;100519.44;5029900;28;20429;-80
2021/03/29 10:38:16;;;;;;;0.45;0.10;;;;;;;16.16;100.00;100524.41;5031154;28;20057;-79
2021/03/29 10:41:19;;;;;;;0.10;0.10;;;;;;;15.82;100.00;100522.56;5030838;28;20065;-78
2021/03/29 10:44:23;;;;;;;1.80;0.20;;;;;;;15.54;100.00;100524.31;5032194;28;20057;-80
2021/03/29 10:47:26;;;;;;;1.90;0.63;;;;;;;15.33;100.00;100528.38;5031652;28;20088;-80
2021/03/29 10:50:30;;;;;;;0.20;0.10;;;;;;;15.17;100.00;100536.09;5031557;28;20065;-82
2021/03/29 10:53:35;;;;;;;1.10;0.20;;;;;;;15.06;100.00;100540.78;5031708;28;20061;-81
2021/03/29 10:56:39;;;;;;;0.10;0.10;;;;;;;14.89;100.00;100545.41;5031664;28;20068;-80
2021/03/29 10:59:43;;;;;;;2.25;0.65;;;;;;;14.89;100.00;100540.56;5031781;28;20489;-81
2021/03/29 11:02:46;;;;;;;0.28;0.10;;;;;;;14.99;100.00;100550.38;5031146;28;20064;-79
2021/03/29 11:05:50;;;;;;;0.73;0.35;;;;;;;15.13;100.00;100546.00;5024660;28;20053;-82
2021/03/29 11:08:53;;;;;;;0.40;0.30;;;;;;;15.01;100.00;100553.47;5031296;28;20060;-80
2021/03/29 11:11:57;;;;;;;4.15;0.47;;;;;;;14.91;100.00;100540.06;5031319;28;20073;-80
2021/03/29 11:15:00;;;;;;;0.50;0.20;;;;;;;15.08;100.00;100539.03;5032459;28;20141;-80
2021/03/29 11:18:05;;;;;;;1.10;0.20;;;;;;;15.24;100.00;100550.97;5033735;28;20072;-79
2021/03/29 11:21:11;;;;;;;1.95;0.32;;;;;;;15.52;100.00;100560.53;5031141;28;20064;-79
2021/03/29 11:24:15;;;;;;;1.38;0.40;;;;;;;15.64;100.00;100565.00;5019748;28;20076;-79
2021/03/29 11:27:18;;;;;;;0.20;0.10;;;;;;;15.58;100.00;100576.19;5029979;28;20052;-81
2021/03/29 11:30:22;;;;;;;2.35;0.43;;;;;;;15.73;100.00;100584.50;5031723;28;20056;-79
2021/03/29 11:33:26;;;;;;;1.55;0.73;;;;;;;15.83;100.00;100580.31;5031481;28;20068;-79
2021/03/29 11:36:29;;;;;;;0.55;0.52;;;;;;;15.89;100.00;100590.34;5030370;28;20056;-79
2021/03/29 11:39:33;;;;;;;1.55;0.22;;;;;;;15.89;100.00;100595.19;5011709;28;20065;-79
2021/03/29 11:42:37;;;;;;;1.60;0.68;;;;;;;16.17;100.00;100587.81;5012183;28;20053;-78
2021/03/29 11:45:41;;;;;;;0.35;0.22;;;;;;;16.42;100.00;100600.28;5014361;28;20061;-80
2021/03/29 11:48:44;;;;;;;1.65;0.55;;;;;;;16.57;100.00;100576.41;5002729;28;20053;-80
2021/03/29 11:51:48;;;;;;;4.60;0.30;;;;;;;16.56;100.00;100594.56;5010859;28;20062;-79
2021/03/29 11:54:51;;;;;;;3.05;0.52;;;;;;;16.31;100.00;100572.84;5003661;28;20414;-79
2021/03/29 11:57:55;;;;;;;0.47;0.35;;;;;;;15.94;100.00;100577.59;5010838;28;20064;-78
2021/03/29 12:01:12;;;;;;;2.45;0.47;;;;;;;15.74;100.00;100574.84;5011599;28;20065;-79
2021/03/29 12:07:47;;;;;;;5.50;0.90;;;;;;;15.86;100.00;100574.47;5010397;28;20061;-80
2021/03/29 12:14:14;;;;;;;3.80;0.40;;;;;;;16.06;100.00;100568.03;5011042;28;20054;-80
2021/03/29 12:17:18;;;;;;;2.67;0.60;;;;;;;16.02;100.00;100570.28;5011096;28;20064;-79
2021/03/29 12:20:21;;;;;;;1.55;0.30;;;;;;;15.85;100.00;100575.72;5010439;28;20449;-79
2021/03/29 12:23:28;;;;;;;0.77;0.10;;;;;;;15.85;100.00;100566.53;5011443;28;20068;-79
2021/03/29 12:26:32;;;;;;;0.40;0.10;;;;;;;15.88;100.00;100579.56;5011479;28;20422;-79
2021/03/29 12:29:41;;;;;;;0.82;0.10;;;;;;;16.01;100.00;100584.81;5018445;28;20065;-79
2021/03/29 12:32:46;;;;;;;0.20;0.10;;;;;;;16.01;100.00;100579.19;5019284;28;20517;-80
2021/03/29 12:35:54;;;;;;;1.65;0.28;;;;;;;16.06;100.00;100579.25;5003928;28;20065;-81
2021/03/29 12:39:07;;;;;;;1.15;0.30;;;;;;;16.04;100.00;100584.59;5019778;28;20147;-81
2021/03/29 12:42:13;;;;;;;0.35;0.10;;;;;;;15.97;100.00;100579.41;5029793;28;20061;-80
2021/03/29 12:45:25;;;;;;;0.10;0.10;;;;;;;16.03;100.00;100579.47;5035928;28;20065;-77
2021/03/29 12:48:28;;;;;;;;;;;;;;;16.20;100.00;100589.59;5036178;28;20057;-79
2021/03/29 12:51:32;;;;;;;0.25;0.08;;;;;;;16.26;100.00;100595.28;5034921;28;19921;-79
2021/03/29 12:54:37;;;;;;;0.57;0.10;;;;;;;16.30;100.00;100588.19;5035022;28;20426;-78
2021/03/29 12:57:42;;;;;;;0.10;0.10;;;;;;;16.25;100.00;100602.94;5033739;28;20414;-79
2021/03/29 13:00:47;;;;;;;0.10;0.10;;;;;;;16.10;100.00;100609.94;5027348;28;20517;-79
2021/03/29 13:03:54;;;;;;;0.10;0.10;;;;;;;16.15;100.00;100612.03;5026451;28;20061;-78
2021/03/29 13:13:46;;;;;;;1.27;0.20;;;;;;;16.41;100.00;100607.19;5021871;28;20049;-79
2021/03/29 13:16:51;;;;;;;0.10;0.10;;;;;;;16.38;100.00;100597.72;5033814;28;20056;-79
2021/03/29 13:19:55;;;;;;;0.10;0.10;;;;;;;16.53;100.00;100601.19;5027367;28;20068;-79
2021/03/29 13:22:58;;;;;;;0.68;0.10;;;;;;;16.64;100.00;100592.06;5024694;28;20061;-80
2021/03/29 13:26:02;;;;;;;0.13;0.10;;;;;;;16.52;100.00;100601.69;5033325;28;20056;-79
2021/03/29 13:29:05;;;;;;;0.35;0.00;;;;;;;16.57;100.00;100609.38;5019237;28;20064;-77
2021/03/29 13:32:09;;;;;;;0.13;0.00;;;;;;;16.62;100.00;100614.28;5033557;28;20520;-77
2021/03/29 13:35:12;;;;;;;1.23;0.13;;;;;;;16.62;100.00;100615.06;5029411;28;20113;-77
2021/03/29 13:38:16;;;;;;;0.63;0.30;;;;;;;16.57;100.00;100617.81;5029140;28;20060;-77
2021/03/29 13:41:20;;;;;;;4.90;0.20;;;;;;;16.57;100.00;100612.19;5030598;28;20056;-77
2021/03/29 13:44:23;;;;;;;0.20;0.10;;;;;;;16.81;100.00;100617.50;5033695;28;20056;-77
2021/03/29 13:47:28;;;;;;;2.13;0.00;;;;;;;17.06;100.00;100627.94;5038066;28;20064;-79
2021/03/29 13:50:34;;;;;;;0.00;0.00;;;;;;;17.15;100.00;100610.84;5013084;28;20056;-77
2021/03/29 13:53:52;;;;;;;1.75;0.00;;;;;;;17.30;100.00;100619.91;5012688;28;20073;-78
2021/03/29 13:56:56;;;;;;;0.10;0.00;;;;;;;17.47;100.00;100612.31;4997897;28;20076;-79
2021/03/29 14:00:00;;;;;;;2.05;0.10;;;;;;;17.58;100.00;100622.88;4999482;28;20367;-80
2021/03/29 14:03:04;;;;;;;0.00;0.00;;;;;;;17.58;100.00;100618.03;5014215;28;20081;-78
2021/03/29 14:06:09;;;;;;;0.03;0.00;;;;;;;17.58;100.00;100622.88;5018926;28;20421;-78
2021/03/29 14:09:18;;;;;;;0.00;0.00;;;;;;;17.67;100.00;100617.78;5031463;28;20060;-77
2021/03/29 14:12:24;;;;;;;0.00;0.00;;;;;;;17.56;100.00;100626.22;5013336;28;20065;-78
2021/03/29 14:15:29;;;;;;;0.60;0.05;;;;;;;17.75;100.00;100621.69;5033859;28;20065;-81
2021/03/29 14:18:33;;;;;;;0.10;0.10;;;;;;;18.11;100.00;100632.03;5033948;28;20060;-81
2021/03/29 14:21:39;;;;;;;1.00;0.05;;;;;;;18.27;100.00;100626.94;5034658;28;20072;-82
2021/03/29 14:24:42;;;;;;;0.10;0.10;;;;;;;18.29;100.00;100613.88;5032523;28;20056;-81
2021/03/29 14:27:47;;;;;;;0.10;0.00;;;;;;;18.16;100.00;100628.47;5031326;28;20060;-81
2021/03/29 14:30:51;;;;;;;1.20;0.10;;;;;;;18.21;100.00;100631.78;5025246;28;20425;-80